sensor_id;sensor_type;location;lat;lon;timestamp;pressure;altitude;pressure_sealevel;temperature;humidity
62946;BME280;52164;52.212;-1.010;2023-04-20T00:00:13;101638.55;;;6.25;63.15
62946;BME280;52164;52.212;-1.010;2023-04-20T00:02:39;101638.27;;;6.23;63.35
62946;BME280;52164;52.212;-1.010;2023-04-20T00:05:05;101634.81;;;6.20;63.38
62946;BME280;52164;52.212;-1.010;2023-04-20T00:07:32;101634.00;;;6.17;63.28
62946;BME280;52164;52.212;-1.010;2023-04-20T00:09:57;101628.72;;;6.13;63.57
62946;BME280;52164;52.212;-1.010;2023-04-20T00:12:24;101622.79;;;6.10;63.72
62946;BME280;52164;52.212;-1.010;2023-04-20T00:14:49;101626.06;;;6.09;64.05
62946;BME280;52164;52.212;-1.010;2023-04-20T00:17:14;101621.59;;;6.07;64.24
62946;BME280;52164;52.212;-1.010;2023-04-20T00:19:40;101620.06;;;6.05;64.41
62946;BME280;52164;52.212;-1.010;2023-04-20T00:22:05;101620.37;;;6.03;64.37
62946;BME280;52164;52.212;-1.010;2023-04-20T00:24:31;101613.00;;;6.00;64.46
62946;BME280;52164;52.212;-1.010;2023-04-20T00:26:56;101610.46;;;5.98;64.73
62946;BME280;52164;52.212;-1.010;2023-04-20T00:29:22;101611.21;;;5.96;64.88
62946;BME280;52164;52.212;-1.010;2023-04-20T00:31:47;101607.39;;;5.93;64.86
62946;BME280;52164;52.212;-1.010;2023-04-20T00:34:13;101601.13;;;5.91;65.33
62946;BME280;52164;52.212;-1.010;2023-04-20T00:36:39;101599.29;;;5.89;65.32
62946;BME280;52164;52.212;-1.010;2023-04-20T00:39:05;101599.41;;;5.88;65.59
62946;BME280;52164;52.212;-1.010;2023-04-20T00:41:30;101598.14;;;5.87;65.66
62946;BME280;52164;52.212;-1.010;2023-04-20T00:43:56;101600.06;;;5.86;65.90
62946;BME280;52164;52.212;-1.010;2023-04-20T00:46:21;101601.52;;;5.83;66.04
62946;BME280;52164;52.212;-1.010;2023-04-20T00:48:47;101598.81;;;5.81;66.03
62946;BME280;52164;52.212;-1.010;2023-04-20T00:51:13;101595.73;;;5.79;66.22
62946;BME280;52164;52.212;-1.010;2023-04-20T00:53:39;101592.34;;;5.78;66.44
62946;BME280;52164;52.212;-1.010;2023-04-20T00:56:05;101588.19;;;5.77;66.42
62946;BME280;52164;52.212;-1.010;2023-04-20T00:58:30;101586.52;;;5.74;66.50
62946;BME280;52164;52.212;-1.010;2023-04-20T01:00:56;101583.08;;;5.72;66.61
62946;BME280;52164;52.212;-1.010;2023-04-20T01:03:21;101582.57;;;5.68;66.84
62946;BME280;52164;52.212;-1.010;2023-04-20T01:05:47;101579.41;;;5.63;66.84
62946;BME280;52164;52.212;-1.010;2023-04-20T01:08:12;101582.13;;;5.61;67.07
62946;BME280;52164;52.212;-1.010;2023-04-20T01:10:37;101575.23;;;5.56;67.30
62946;BME280;52164;52.212;-1.010;2023-04-20T01:13:03;101570.36;;;5.54;67.62
62946;BME280;52164;52.212;-1.010;2023-04-20T01:15:28;101568.47;;;5.51;67.43
62946;BME280;52164;52.212;-1.010;2023-04-20T01:17:53;101565.52;;;5.47;67.44
62946;BME280;52164;52.212;-1.010;2023-04-20T01:20:19;101561.41;;;5.46;67.57
62946;BME280;52164;52.212;-1.010;2023-04-20T01:22:49;101556.42;;;5.46;68.06
62946;BME280;52164;52.212;-1.010;2023-04-20T01:25:16;101558.00;;;5.45;68.19
62946;BME280;52164;52.212;-1.010;2023-04-20T01:27:41;101556.40;;;5.45;68.46
62946;BME280;52164;52.212;-1.010;2023-04-20T01:30:07;101554.48;;;5.46;68.54
62946;BME280;52164;52.212;-1.010;2023-04-20T01:32:33;101548.69;;;5.47;68.52
62946;BME280;52164;52.212;-1.010;2023-04-20T01:34:59;101550.19;;;5.50;68.51
62946;BME280;52164;52.212;-1.010;2023-04-20T01:37:24;101554.46;;;5.51;68.56
62946;BME280;52164;52.212;-1.010;2023-04-20T01:39:50;101550.21;;;5.51;68.86
62946;BME280;52164;52.212;-1.010;2023-04-20T01:42:15;101550.55;;;5.50;68.77
62946;BME280;52164;52.212;-1.010;2023-04-20T01:44:40;101549.65;;;5.49;68.87
62946;BME280;52164;52.212;-1.010;2023-04-20T01:47:06;101544.70;;;5.50;68.85
62946;BME280;52164;52.212;-1.010;2023-04-20T01:49:31;101544.19;;;5.51;69.07
62946;BME280;52164;52.212;-1.010;2023-04-20T01:51:56;101544.19;;;5.51;68.91
62946;BME280;52164;52.212;-1.010;2023-04-20T01:54:21;101541.54;;;5.50;68.99
62946;BME280;52164;52.212;-1.010;2023-04-20T01:56:47;101538.35;;;5.50;69.26
62946;BME280;52164;52.212;-1.010;2023-04-20T01:59:12;101539.27;;;5.51;69.49
62946;BME280;52164;52.212;-1.010;2023-04-20T02:01:37;101540.38;;;5.53;69.59
62946;BME280;52164;52.212;-1.010;2023-04-20T02:04:03;101537.75;;;5.53;69.57
62946;BME280;52164;52.212;-1.010;2023-04-20T02:06:28;101534.40;;;5.54;69.54
62946;BME280;52164;52.212;-1.010;2023-04-20T02:08:53;101535.27;;;5.54;69.60
62946;BME280;52164;52.212;-1.010;2023-04-20T02:11:18;101533.73;;;5.54;69.76
62946;BME280;52164;52.212;-1.010;2023-04-20T02:13:45;101535.86;;;5.55;69.88
62946;BME280;52164;52.212;-1.010;2023-04-20T02:16:11;101534.80;;;5.55;69.76
62946;BME280;52164;52.212;-1.010;2023-04-20T02:18:36;101532.67;;;5.55;69.78
62946;BME280;52164;52.212;-1.010;2023-04-20T02:21:02;101530.36;;;5.54;69.91
62946;BME280;52164;52.212;-1.010;2023-04-20T02:23:27;101529.98;;;5.54;69.84
62946;BME280;52164;52.212;-1.010;2023-04-20T02:25:55;101526.77;;;5.54;69.91
62946;BME280;52164;52.212;-1.010;2023-04-20T02:28:20;101529.78;;;5.53;69.87
62946;BME280;52164;52.212;-1.010;2023-04-20T02:30:45;101523.36;;;5.52;69.97
62946;BME280;52164;52.212;-1.010;2023-04-20T02:33:10;101525.48;;;5.52;69.85
62946;BME280;52164;52.212;-1.010;2023-04-20T02:35:36;101524.42;;;5.52;69.92
62946;BME280;52164;52.212;-1.010;2023-04-20T02:38:02;101521.58;;;5.51;70.04
62946;BME280;52164;52.212;-1.010;2023-04-20T02:40:28;101523.73;;;5.52;70.12
62946;BME280;52164;52.212;-1.010;2023-04-20T02:42:53;101524.05;;;5.52;70.05
62946;BME280;52164;52.212;-1.010;2023-04-20T02:45:18;101527.41;;;5.52;70.15
62946;BME280;52164;52.212;-1.010;2023-04-20T02:47:43;101525.84;;;5.52;70.22
62946;BME280;52164;52.212;-1.010;2023-04-20T02:50:09;101524.56;;;5.51;70.22
62946;BME280;52164;52.212;-1.010;2023-04-20T02:52:35;101528.13;;;5.52;70.05
62946;BME280;52164;52.212;-1.010;2023-04-20T02:55:00;101522.08;;;5.51;70.34
62946;BME280;52164;52.212;-1.010;2023-04-20T02:57:25;101520.92;;;5.48;70.16
62946;BME280;52164;52.212;-1.010;2023-04-20T02:59:51;101519.83;;;5.47;70.27
62946;BME280;52164;52.212;-1.010;2023-04-20T03:02:16;101521.01;;;5.46;70.39
62946;BME280;52164;52.212;-1.010;2023-04-20T03:04:41;101516.19;;;5.44;70.40
62946;BME280;52164;52.212;-1.010;2023-04-20T03:07:06;101517.75;;;5.44;70.33
62946;BME280;52164;52.212;-1.010;2023-04-20T03:09:33;101512.51;;;5.41;70.52
62946;BME280;52164;52.212;-1.010;2023-04-20T03:11:59;101515.46;;;5.39;70.55
62946;BME280;52164;52.212;-1.010;2023-04-20T03:14:26;101514.33;;;5.37;70.41
62946;BME280;52164;52.212;-1.010;2023-04-20T03:16:51;101514.11;;;5.36;70.72
62946;BME280;52164;52.212;-1.010;2023-04-20T03:19:17;101516.18;;;5.35;70.68
62946;BME280;52164;52.212;-1.010;2023-04-20T03:21:43;101514.58;;;5.35;70.83
62946;BME280;52164;52.212;-1.010;2023-04-20T03:24:08;101515.30;;;5.35;70.67
62946;BME280;52164;52.212;-1.010;2023-04-20T03:26:34;101517.58;;;5.34;70.35
62946;BME280;52164;52.212;-1.010;2023-04-20T03:29:00;101518.80;;;5.34;70.45
62946;BME280;52164;52.212;-1.010;2023-04-20T03:31:25;101520.23;;;5.34;70.61
62946;BME280;52164;52.212;-1.010;2023-04-20T03:33:51;101515.83;;;5.35;70.77
62946;BME280;52164;52.212;-1.010;2023-04-20T03:36:16;101516.26;;;5.37;70.63
62946;BME280;52164;52.212;-1.010;2023-04-20T03:38:41;101515.77;;;5.38;70.75
62946;BME280;52164;52.212;-1.010;2023-04-20T03:41:07;101514.10;;;5.41;70.65
62946;BME280;52164;52.212;-1.010;2023-04-20T03:43:32;101516.84;;;5.43;70.56
62946;BME280;52164;52.212;-1.010;2023-04-20T03:45:58;101515.26;;;5.43;70.62
62946;BME280;52164;52.212;-1.010;2023-04-20T03:48:23;101515.67;;;5.45;70.70
62946;BME280;52164;52.212;-1.010;2023-04-20T03:50:48;101519.11;;;5.46;70.75
62946;BME280;52164;52.212;-1.010;2023-04-20T03:53:13;101525.20;;;5.49;70.87
62946;BME280;52164;52.212;-1.010;2023-04-20T03:55:39;101524.91;;;5.51;70.88
62946;BME280;52164;52.212;-1.010;2023-04-20T03:58:04;101528.55;;;5.54;70.93
62946;BME280;52164;52.212;-1.010;2023-04-20T04:00:31;101526.65;;;5.55;70.96
62946;BME280;52164;52.212;-1.010;2023-04-20T04:02:57;101524.21;;;5.56;70.92
62946;BME280;52164;52.212;-1.010;2023-04-20T04:05:23;101526.54;;;5.56;70.93
62946;BME280;52164;52.212;-1.010;2023-04-20T04:07:48;101526.70;;;5.56;70.64
62946;BME280;52164;52.212;-1.010;2023-04-20T04:10:13;101524.67;;;5.54;70.80
62946;BME280;52164;52.212;-1.010;2023-04-20T04:12:40;101520.32;;;5.51;70.86
62946;BME280;52164;52.212;-1.010;2023-04-20T04:15:05;101523.11;;;5.50;70.99
62946;BME280;52164;52.212;-1.010;2023-04-20T04:17:31;101524.45;;;5.48;71.19
62946;BME280;52164;52.212;-1.010;2023-04-20T04:19:56;101522.78;;;5.45;70.91
62946;BME280;52164;52.212;-1.010;2023-04-20T04:22:21;101525.56;;;5.44;71.12
62946;BME280;52164;52.212;-1.010;2023-04-20T04:24:46;101523.33;;;5.41;71.17
62946;BME280;52164;52.212;-1.010;2023-04-20T04:27:13;101525.19;;;5.39;71.34
62946;BME280;52164;52.212;-1.010;2023-04-20T04:29:39;101523.70;;;5.37;71.16
62946;BME280;52164;52.212;-1.010;2023-04-20T04:32:06;101524.10;;;5.33;71.44
62946;BME280;52164;52.212;-1.010;2023-04-20T04:34:32;101528.78;;;5.31;71.54
62946;BME280;52164;52.212;-1.010;2023-04-20T04:37:01;101528.85;;;5.28;71.45
62946;BME280;52164;52.212;-1.010;2023-04-20T04:39:27;101533.16;;;5.25;71.57
62946;BME280;52164;52.212;-1.010;2023-04-20T04:41:52;101537.83;;;5.22;71.72
62946;BME280;52164;52.212;-1.010;2023-04-20T04:44:18;101537.95;;;5.21;71.60
62946;BME280;52164;52.212;-1.010;2023-04-20T04:46:43;101534.87;;;5.19;71.75
62946;BME280;52164;52.212;-1.010;2023-04-20T04:49:09;101532.52;;;5.18;71.78
62946;BME280;52164;52.212;-1.010;2023-04-20T04:51:35;101532.33;;;5.17;71.69
62946;BME280;52164;52.212;-1.010;2023-04-20T04:54:00;101532.06;;;5.15;71.90
62946;BME280;52164;52.212;-1.010;2023-04-20T04:56:26;101536.07;;;5.13;71.97
62946;BME280;52164;52.212;-1.010;2023-04-20T04:58:52;101533.87;;;5.11;71.97
62946;BME280;52164;52.212;-1.010;2023-04-20T05:01:17;101537.52;;;5.09;71.85
62946;BME280;52164;52.212;-1.010;2023-04-20T05:03:43;101540.84;;;5.08;71.74
62946;BME280;52164;52.212;-1.010;2023-04-20T05:06:08;101544.52;;;5.07;71.85
62946;BME280;52164;52.212;-1.010;2023-04-20T05:08:33;101543.77;;;5.06;71.83
62946;BME280;52164;52.212;-1.010;2023-04-20T05:11:00;101543.52;;;5.04;71.76
62946;BME280;52164;52.212;-1.010;2023-04-20T05:13:25;101545.95;;;5.03;71.86
62946;BME280;52164;52.212;-1.010;2023-04-20T05:15:50;101546.52;;;5.00;71.99
62946;BME280;52164;52.212;-1.010;2023-04-20T05:18:16;101548.05;;;4.98;71.92
62946;BME280;52164;52.212;-1.010;2023-04-20T05:20:41;101551.20;;;4.98;71.92
62946;BME280;52164;52.212;-1.010;2023-04-20T05:23:06;101557.20;;;4.97;72.07
62946;BME280;52164;52.212;-1.010;2023-04-20T05:25:32;101553.89;;;4.99;71.90
62946;BME280;52164;52.212;-1.010;2023-04-20T05:27:59;101559.31;;;5.01;71.94
62946;BME280;52164;52.212;-1.010;2023-04-20T05:30:24;101558.16;;;5.03;71.88
62946;BME280;52164;52.212;-1.010;2023-04-20T05:32:50;101556.67;;;5.06;71.73
62946;BME280;52164;52.212;-1.010;2023-04-20T05:35:15;101554.30;;;5.08;71.75
62946;BME280;52164;52.212;-1.010;2023-04-20T05:37:41;101552.69;;;5.13;71.79
62946;BME280;52164;52.212;-1.010;2023-04-20T05:40:06;101553.09;;;5.19;71.92
62946;BME280;52164;52.212;-1.010;2023-04-20T05:42:32;101553.73;;;5.26;71.98
62946;BME280;52164;52.212;-1.010;2023-04-20T05:44:57;101555.74;;;5.33;71.83
62946;BME280;52164;52.212;-1.010;2023-04-20T05:47:22;101559.16;;;5.39;72.09
62946;BME280;52164;52.212;-1.010;2023-04-20T05:49:48;101566.33;;;5.45;71.97
62946;BME280;52164;52.212;-1.010;2023-04-20T05:52:13;101568.20;;;5.53;72.03
62946;BME280;52164;52.212;-1.010;2023-04-20T05:54:38;101569.02;;;5.60;71.72
62946;BME280;52164;52.212;-1.010;2023-04-20T05:57:03;101571.84;;;5.70;71.63
62946;BME280;52164;52.212;-1.010;2023-04-20T05:59:29;101573.52;;;5.77;71.61
62946;BME280;52164;52.212;-1.010;2023-04-20T06:01:55;101576.08;;;5.84;71.61
62946;BME280;52164;52.212;-1.010;2023-04-20T06:04:20;101576.85;;;5.91;71.41
62946;BME280;52164;52.212;-1.010;2023-04-20T06:06:46;101580.98;;;5.97;71.33
62946;BME280;52164;52.212;-1.010;2023-04-20T06:09:11;101580.29;;;6.02;71.24
62946;BME280;52164;52.212;-1.010;2023-04-20T06:11:36;101577.43;;;6.07;71.25
62946;BME280;52164;52.212;-1.010;2023-04-20T06:14:02;101579.25;;;6.12;71.09
62946;BME280;52164;52.212;-1.010;2023-04-20T06:16:27;101574.80;;;6.17;70.98
62946;BME280;52164;52.212;-1.010;2023-04-20T06:18:52;101576.02;;;6.22;70.96
62946;BME280;52164;52.212;-1.010;2023-04-20T06:21:17;101574.64;;;6.28;71.16
62946;BME280;52164;52.212;-1.010;2023-04-20T06:23:44;101575.70;;;6.33;71.13
62946;BME280;52164;52.212;-1.010;2023-04-20T06:26:09;101570.55;;;6.38;71.04
62946;BME280;52164;52.212;-1.010;2023-04-20T06:28:39;101572.00;;;6.45;70.95
62946;BME280;52164;52.212;-1.010;2023-04-20T06:31:04;101563.71;;;6.51;70.88
62946;BME280;52164;52.212;-1.010;2023-04-20T06:33:30;101565.57;;;6.59;70.96
62946;BME280;52164;52.212;-1.010;2023-04-20T06:35:55;101564.00;;;6.65;70.71
62946;BME280;52164;52.212;-1.010;2023-04-20T06:38:21;101559.63;;;6.73;70.35
62946;BME280;52164;52.212;-1.010;2023-04-20T06:40:47;101556.70;;;6.80;70.28
62946;BME280;52164;52.212;-1.010;2023-04-20T06:43:13;101558.30;;;6.87;70.22
62946;BME280;52164;52.212;-1.010;2023-04-20T06:45:38;101559.80;;;6.94;70.41
62946;BME280;52164;52.212;-1.010;2023-04-20T06:48:04;101558.91;;;7.00;70.20
62946;BME280;52164;52.212;-1.010;2023-04-20T06:50:29;101556.10;;;7.07;69.98
62946;BME280;52164;52.212;-1.010;2023-04-20T06:52:55;101553.63;;;7.13;69.91
62946;BME280;52164;52.212;-1.010;2023-04-20T06:55:20;101557.94;;;7.21;69.65
62946;BME280;52164;52.212;-1.010;2023-04-20T06:57:45;101556.77;;;7.28;69.27
62946;BME280;52164;52.212;-1.010;2023-04-20T07:00:11;101556.10;;;7.36;69.15
62946;BME280;52164;52.212;-1.010;2023-04-20T07:02:44;101553.68;;;7.45;69.02
62946;BME280;52164;52.212;-1.010;2023-04-20T07:05:10;101552.34;;;7.53;68.77
62946;BME280;52164;52.212;-1.010;2023-04-20T07:07:36;101557.19;;;7.61;68.63
62946;BME280;52164;52.212;-1.010;2023-04-20T07:10:01;101557.20;;;7.69;68.28
62946;BME280;52164;52.212;-1.010;2023-04-20T07:12:29;101558.65;;;7.75;68.23
62946;BME280;52164;52.212;-1.010;2023-04-20T07:14:54;101551.57;;;7.83;68.27
62946;BME280;52164;52.212;-1.010;2023-04-20T07:17:19;101553.71;;;7.90;68.04
62946;BME280;52164;52.212;-1.010;2023-04-20T07:19:45;101550.34;;;7.96;68.31
62946;BME280;52164;52.212;-1.010;2023-04-20T07:22:10;101552.52;;;8.05;67.56
62946;BME280;52164;52.212;-1.010;2023-04-20T07:24:35;101556.08;;;8.12;67.48
62946;BME280;52164;52.212;-1.010;2023-04-20T07:27:00;101554.49;;;8.19;67.14
62946;BME280;52164;52.212;-1.010;2023-04-20T07:29:27;101549.17;;;8.26;67.04
62946;BME280;52164;52.212;-1.010;2023-04-20T07:31:53;101548.84;;;8.34;66.96
62946;BME280;52164;52.212;-1.010;2023-04-20T07:34:18;101543.69;;;8.41;66.85
62946;BME280;52164;52.212;-1.010;2023-04-20T07:36:43;101543.36;;;8.48;66.35
62946;BME280;52164;52.212;-1.010;2023-04-20T07:39:08;101546.58;;;8.56;66.61
62946;BME280;52164;52.212;-1.010;2023-04-20T07:41:34;101546.91;;;8.62;66.06
62946;BME280;52164;52.212;-1.010;2023-04-20T07:44:00;101541.22;;;8.70;66.02
62946;BME280;52164;52.212;-1.010;2023-04-20T07:46:25;101540.84;;;8.76;65.65
62946;BME280;52164;52.212;-1.010;2023-04-20T07:48:52;101534.04;;;8.82;65.55
62946;BME280;52164;52.212;-1.010;2023-04-20T07:51:17;101536.16;;;8.89;65.35
62946;BME280;52164;52.212;-1.010;2023-04-20T07:53:43;101535.27;;;8.97;65.30
62946;BME280;52164;52.212;-1.010;2023-04-20T07:56:08;101535.11;;;9.05;65.35
62946;BME280;52164;52.212;-1.010;2023-04-20T07:58:33;101530.83;;;9.13;64.85
62946;BME280;52164;52.212;-1.010;2023-04-20T08:01:02;101531.18;;;9.21;64.55
62946;BME280;52164;52.212;-1.010;2023-04-20T08:03:27;101524.41;;;9.29;63.76
62946;BME280;52164;52.212;-1.010;2023-04-20T08:05:52;101523.35;;;9.38;63.31
62946;BME280;52164;52.212;-1.010;2023-04-20T08:08:18;101523.70;;;9.47;62.30
62946;BME280;52164;52.212;-1.010;2023-04-20T08:10:43;101519.93;;;9.54;61.93
62946;BME280;52164;52.212;-1.010;2023-04-20T08:13:08;101515.45;;;9.62;61.35
62946;BME280;52164;52.212;-1.010;2023-04-20T08:15:34;101514.52;;;9.69;61.14
62946;BME280;52164;52.212;-1.010;2023-04-20T08:17:59;101513.05;;;9.76;60.84
62946;BME280;52164;52.212;-1.010;2023-04-20T08:20:25;101519.61;;;9.83;60.47
62946;BME280;52164;52.212;-1.010;2023-04-20T08:22:50;101512.45;;;9.90;60.20
62946;BME280;52164;52.212;-1.010;2023-04-20T08:25:16;101514.17;;;9.97;60.23
62946;BME280;52164;52.212;-1.010;2023-04-20T08:27:42;101513.42;;;10.04;59.96
62946;BME280;52164;52.212;-1.010;2023-04-20T08:30:07;101513.00;;;10.11;59.66
62946;BME280;52164;52.212;-1.010;2023-04-20T08:32:33;101510.09;;;10.18;59.48
62946;BME280;52164;52.212;-1.010;2023-04-20T08:34:58;101504.87;;;10.26;58.95
62946;BME280;52164;52.212;-1.010;2023-04-20T08:37:23;101507.31;;;10.32;58.28
62946;BME280;52164;52.212;-1.010;2023-04-20T08:39:49;101509.39;;;10.38;58.30
62946;BME280;52164;52.212;-1.010;2023-04-20T08:42:15;101502.89;;;10.44;57.97
62946;BME280;52164;52.212;-1.010;2023-04-20T08:44:41;101502.63;;;10.50;57.76
62946;BME280;52164;52.212;-1.010;2023-04-20T08:47:07;101502.74;;;10.58;57.44
62946;BME280;52164;52.212;-1.010;2023-04-20T08:49:33;101501.24;;;10.65;56.90
62946;BME280;52164;52.212;-1.010;2023-04-20T08:51:58;101500.98;;;10.71;56.38
62946;BME280;52164;52.212;-1.010;2023-04-20T08:54:23;101501.64;;;10.78;56.28
62946;BME280;52164;52.212;-1.010;2023-04-20T08:56:49;101496.21;;;10.86;56.49
62946;BME280;52164;52.212;-1.010;2023-04-20T08:59:15;101500.61;;;10.94;56.29
62946;BME280;52164;52.212;-1.010;2023-04-20T09:01:41;101501.08;;;11.02;55.45
62946;BME280;52164;52.212;-1.010;2023-04-20T09:04:22;101495.80;;;11.09;54.73
62946;BME280;52164;52.212;-1.010;2023-04-20T09:06:49;101498.25;;;11.17;54.33
62946;BME280;52164;52.212;-1.010;2023-04-20T09:09:15;101501.90;;;11.23;53.61
62946;BME280;52164;52.212;-1.010;2023-04-20T09:11:41;101498.75;;;11.29;53.04
62946;BME280;52164;52.212;-1.010;2023-04-20T09:14:07;101494.91;;;11.36;52.69
62946;BME280;52164;52.212;-1.010;2023-04-20T09:16:34;101487.14;;;11.42;52.87
62946;BME280;52164;52.212;-1.010;2023-04-20T09:19:00;101488.65;;;11.50;52.47
62946;BME280;52164;52.212;-1.010;2023-04-20T09:21:25;101484.08;;;11.56;52.25
62946;BME280;52164;52.212;-1.010;2023-04-20T09:24:00;101483.42;;;11.62;51.65
62946;BME280;52164;52.212;-1.010;2023-04-20T09:26:26;101484.77;;;11.69;50.90
62946;BME280;52164;52.212;-1.010;2023-04-20T09:28:51;101483.61;;;11.78;51.01
62946;BME280;52164;52.212;-1.010;2023-04-20T09:31:19;101474.20;;;11.86;51.50
62946;BME280;52164;52.212;-1.010;2023-04-20T09:33:54;101470.54;;;11.93;50.70
62946;BME280;52164;52.212;-1.010;2023-04-20T09:36:19;101465.95;;;12.01;50.57
62946;BME280;52164;52.212;-1.010;2023-04-20T09:38:45;101465.69;;;12.08;50.69
62946;BME280;52164;52.212;-1.010;2023-04-20T09:41:10;101462.18;;;12.17;49.85
62946;BME280;52164;52.212;-1.010;2023-04-20T09:43:36;101458.30;;;12.24;49.46
62946;BME280;52164;52.212;-1.010;2023-04-20T09:46:01;101453.90;;;12.31;49.26
62946;BME280;52164;52.212;-1.010;2023-04-20T09:48:27;101456.63;;;12.39;49.64
62946;BME280;52164;52.212;-1.010;2023-04-20T09:50:52;101452.04;;;12.48;49.28
62946;BME280;52164;52.212;-1.010;2023-04-20T09:53:18;101451.38;;;12.56;49.19
62946;BME280;52164;52.212;-1.010;2023-04-20T09:55:45;101449.09;;;12.61;49.20
62946;BME280;52164;52.212;-1.010;2023-04-20T09:58:11;101444.46;;;12.67;48.79
62946;BME280;52164;52.212;-1.010;2023-04-20T10:00:37;101438.95;;;12.74;49.32
62946;BME280;52164;52.212;-1.010;2023-04-20T10:03:02;101441.86;;;12.80;48.80
62946;BME280;52164;52.212;-1.010;2023-04-20T10:05:31;101437.96;;;12.88;48.94
62946;BME280;52164;52.212;-1.010;2023-04-20T10:07:58;101431.36;;;12.94;48.48
62946;BME280;52164;52.212;-1.010;2023-04-20T10:10:23;101433.00;;;13.01;48.86
62946;BME280;52164;52.212;-1.010;2023-04-20T10:12:49;101426.05;;;13.06;48.84
62946;BME280;52164;52.212;-1.010;2023-04-20T10:15:16;101420.85;;;13.09;47.72
62946;BME280;52164;52.212;-1.010;2023-04-20T10:17:41;101418.00;;;13.12;47.90
62946;BME280;52164;52.212;-1.010;2023-04-20T10:20:16;101415.52;;;13.17;47.51
62946;BME280;52164;52.212;-1.010;2023-04-20T10:22:42;101409.27;;;13.24;47.57
62946;BME280;52164;52.212;-1.010;2023-04-20T10:25:16;101405.89;;;13.31;47.12
62946;BME280;52164;52.212;-1.010;2023-04-20T10:27:58;101405.76;;;13.38;46.65
62946;BME280;52164;52.212;-1.010;2023-04-20T10:30:26;101403.45;;;13.48;47.53
62946;BME280;52164;52.212;-1.010;2023-04-20T10:33:04;101397.02;;;13.57;47.60
62946;BME280;52164;52.212;-1.010;2023-04-20T10:35:39;101396.67;;;13.63;46.92
62946;BME280;52164;52.212;-1.010;2023-04-20T10:38:04;101393.44;;;13.70;47.17
62946;BME280;52164;52.212;-1.010;2023-04-20T10:40:30;101387.88;;;13.78;46.94
62946;BME280;52164;52.212;-1.010;2023-04-20T10:42:55;101385.20;;;13.86;45.99
62946;BME280;52164;52.212;-1.010;2023-04-20T10:45:20;101380.90;;;13.94;46.01
62946;BME280;52164;52.212;-1.010;2023-04-20T10:47:57;101374.80;;;14.05;46.18
62946;BME280;52164;52.212;-1.010;2023-04-20T10:50:23;101368.86;;;14.14;46.53
62946;BME280;52164;52.212;-1.010;2023-04-20T10:52:48;101369.73;;;14.25;46.28
62946;BME280;52164;52.212;-1.010;2023-04-20T10:55:18;101364.70;;;14.37;46.05
62946;BME280;52164;52.212;-1.010;2023-04-20T10:57:44;101358.73;;;14.50;45.46
62946;BME280;52164;52.212;-1.010;2023-04-20T11:00:14;101352.25;;;14.59;44.45
62946;BME280;52164;52.212;-1.010;2023-04-20T11:02:48;101349.02;;;14.68;44.07
62946;BME280;52164;52.212;-1.010;2023-04-20T11:05:14;101343.21;;;14.81;43.55
62946;BME280;52164;52.212;-1.010;2023-04-20T11:07:56;101343.52;;;14.92;43.21
62946;BME280;52164;52.212;-1.010;2023-04-20T11:10:23;101338.45;;;15.02;42.01
62946;BME280;52164;52.212;-1.010;2023-04-20T11:12:49;101329.02;;;15.13;41.54
62946;BME280;52164;52.212;-1.010;2023-04-20T11:15:15;101325.72;;;15.26;41.97
62946;BME280;52164;52.212;-1.010;2023-04-20T11:17:40;101325.28;;;15.39;42.24
62946;BME280;52164;52.212;-1.010;2023-04-20T11:20:07;101321.25;;;15.48;42.17
62946;BME280;52164;52.212;-1.010;2023-04-20T11:22:35;101319.57;;;15.56;41.33
62946;BME280;52164;52.212;-1.010;2023-04-20T11:25:02;101319.67;;;15.66;41.47
62946;BME280;52164;52.212;-1.010;2023-04-20T11:27:29;101313.13;;;15.77;41.67
62946;BME280;52164;52.212;-1.010;2023-04-20T11:29:55;101316.30;;;15.87;41.43
62946;BME280;52164;52.212;-1.010;2023-04-20T11:32:24;101314.01;;;16.01;41.57
62946;BME280;52164;52.212;-1.010;2023-04-20T11:34:59;101314.40;;;16.15;41.06
62946;BME280;52164;52.212;-1.010;2023-04-20T11:37:25;101306.33;;;16.29;40.73
62946;BME280;52164;52.212;-1.010;2023-04-20T11:39:59;101302.60;;;16.40;40.49
62946;BME280;52164;52.212;-1.010;2023-04-20T11:42:25;101297.61;;;16.52;39.98
62946;BME280;52164;52.212;-1.010;2023-04-20T11:44:50;101289.89;;;16.63;39.93
62946;BME280;52164;52.212;-1.010;2023-04-20T11:47:16;101288.48;;;16.74;39.91
62946;BME280;52164;52.212;-1.010;2023-04-20T11:49:42;101281.69;;;16.85;39.70
62946;BME280;52164;52.212;-1.010;2023-04-20T11:52:07;101281.21;;;16.96;39.39
62946;BME280;52164;52.212;-1.010;2023-04-20T11:54:33;101271.98;;;17.10;39.66
62946;BME280;52164;52.212;-1.010;2023-04-20T11:56:59;101269.98;;;17.22;39.12
62946;BME280;52164;52.212;-1.010;2023-04-20T11:59:24;101263.19;;;17.31;38.95
62946;BME280;52164;52.212;-1.010;2023-04-20T12:01:50;101261.15;;;17.45;38.60
62946;BME280;52164;52.212;-1.010;2023-04-20T12:04:16;101255.80;;;17.52;38.67
62946;BME280;52164;52.212;-1.010;2023-04-20T12:06:41;101250.11;;;17.57;38.32
62946;BME280;52164;52.212;-1.010;2023-04-20T12:09:06;101250.88;;;17.65;37.90
62946;BME280;52164;52.212;-1.010;2023-04-20T12:11:32;101253.13;;;17.71;37.18
62946;BME280;52164;52.212;-1.010;2023-04-20T12:13:57;101248.17;;;17.75;37.11
62946;BME280;52164;52.212;-1.010;2023-04-20T12:16:24;101245.50;;;17.83;37.20
62946;BME280;52164;52.212;-1.010;2023-04-20T12:18:51;101242.67;;;17.91;36.73
62946;BME280;52164;52.212;-1.010;2023-04-20T12:21:16;101241.95;;;18.01;37.05
62946;BME280;52164;52.212;-1.010;2023-04-20T12:23:42;101237.04;;;18.12;37.54
62946;BME280;52164;52.212;-1.010;2023-04-20T12:26:08;101241.19;;;18.22;36.78
62946;BME280;52164;52.212;-1.010;2023-04-20T12:28:33;101228.23;;;18.27;36.35
62946;BME280;52164;52.212;-1.010;2023-04-20T12:30:58;101227.80;;;18.40;36.79
62946;BME280;52164;52.212;-1.010;2023-04-20T12:33:24;101229.40;;;18.50;35.85
62946;BME280;52164;52.212;-1.010;2023-04-20T12:35:51;101225.30;;;18.56;35.46
62946;BME280;52164;52.212;-1.010;2023-04-20T12:38:16;101215.42;;;18.61;35.55
62946;BME280;52164;52.212;-1.010;2023-04-20T12:40:42;101217.80;;;18.68;35.84